METAR Analyzer

一覧表示

Hello, Guest. (Login)

RJFF/FUK  -  福岡

観測日時
2021-11-28 20:30 (UTC) (31分前)
気温
7
露点
2
湿数
5
相対湿度
70.4%
QNH
1029.1hPa
推定現地気圧
1028.0hPa
推定海面気圧
1029.1hPa
体感温度
1.2
(無風時)
10.3
HI
5.6
気温前日比
+2
体感温度前日比
+2.7
HI前日比
+1.9
水平視程
>10000m
鉛直視程
データなし
雲底高度
データなし
V/I
判定不可
RVR
No RVR data
卓越風
3kt from 150°
ガスト
No gust
降水
報告なし
その他の天気
NSC
報告なし

RJFF 282030Z AUTO 15003KT 9999 NSC 07/02 Q1029 NOSIG RMK A3039

RJFR/KKJ  -  北九州

観測日時
2021-11-28 20:00 (UTC) (61分前)
気温
7
露点
5
湿数
2
相対湿度
87.1%
QNH
1029hPa
推定現地気圧
1028.3hPa
推定海面気圧
1029.1hPa
体感温度
2.3
(無風時)
10.1
HI
6
気温前日比
-3
体感温度前日比
+0.6
HI前日比
-2.8
水平視程
>10000m
鉛直視程
データなし
雲底高度
No dense clouds
V/I
VMC (VFR)
RVR
No RVR data
卓越風
2kt from 320°
ガスト
No gust
降水
報告なし
その他の天気
報告なし
報告なし

RJFR 282000Z 32002KT CAVOK 07/05 Q1029

RJFA  -  芦屋基地

観測日時
2021-11-28 20:00 (UTC) (61分前)
気温
3
露点
2
湿数
1
相対湿度
93.1%
QNH
1029.5hPa
推定現地気圧
1025.9hPa
推定海面気圧
1029.7hPa
体感温度
-10.2
(無風時)
6.5
HI
1.8
気温前日比
±0
体感温度前日比
-0.8
HI前日比
±0
水平視程
>10000m
鉛直視程
データなし
雲底高度
No dense clouds
V/I
VMC (VFR)
RVR
No RVR data
卓越風
8kt from 150°
ガスト
No gust
降水
報告なし
その他の天気
報告なし
少しの(2/8) 高積雲 @ 15000ft AGL / 散在する雲 @ 不明な高さ

RJFA 282000Z 15008KT 9999 FEW150 SCT/// 03/02 Q1029 RMK 2AC150 A3040

RJFZ  -  築城基地

観測日時
2021-11-28 20:00 (UTC) (61分前)
気温
3
露点
1
湿数
2
相対湿度
86.7%
QNH
1029.1hPa
推定現地気圧
1027.0hPa
推定海面気圧
1029.2hPa
体感温度
-5.7
(無風時)
6.7
HI
1.6
気温前日比
+2
体感温度前日比
+3.4
HI前日比
+1.8
水平視程
>10000m
鉛直視程
データなし
雲底高度
No dense clouds
V/I
VMC (VFR)
RVR
No RVR data
卓越風
4kt from 210°
ガスト
No gust
降水
報告なし
その他の天気
報告なし
散在する雲 @ 不明な高さ

RJFZ 282000Z 21004KT 9999 SCT/// 03/01 Q1029 RMK A3039

RJFS/HSG  -  佐賀